Terminal Aerodrome Forecast
Issued by NWS

Home | Current Version | Previous Version | Text Only | Print | Product List | Glossary On
Versions: 1 2 3 4 5 6 7 8 9 10 11 12 13 14 15 16 17 18 19
423
FTUS42 KMHX 162327
TAFOAJ
TAF
KOAJ 162327Z 1700/1724 VRB03KT P6SM OVC015
     FM170400 00000KT P6SM SCT026 BKN070
      TEMPO 1707/1711 4SM BR BKN025
     FM171100 00000KT P6SM BKN025
     FM171700 23005KT P6SM BKN015
     FM172200 21006KT P6SM BKN110
      AMD LTD TO CLD VIS AND WIND=

USA.gov is the U.S. government's official web portal to all federal, state and local government web resources and services.